Time;durP1;ratioP1;P1;durP2;ratioP2;P2;SDS_P1;SDS_P2;PMS_P1;PMS_P2;Temp;Humidity;BMP_temperature;BMP_pressure;BME280_temperature;BME280_humidity;BME280_pressure;Samples;Min_cycle;Max_cycle;Signal;HPM_P1;HPM_P2
2023/06/08 00:01:42;;;;;;;;;;;;;;;;;;4942063;29;19918;-76
2023/06/08 00:04:30;;;;;;;;;;;;;;;;;;4939930;29;19927;-89
2023/06/08 00:07:16;;;;;;;;;;;;;;;;;;4940591;29;20484;-89
2023/06/08 00:10:03;;;;;;;;;;;;;;;;;;4933140;29;19919;-89
2023/06/08 00:12:49;;;;;;;;;;;;;;;;;;4939561;28;19919;-89
2023/06/08 00:15:36;;;;;;;;;;;;;;;;;;4947965;28;19922;-88
2023/06/08 00:18:22;;;;;;;;;;;;;;;;;;4938919;29;19923;-87
2023/06/08 00:21:12;;;;;;;;;;;;;;;;;;4937133;28;19918;-87
2023/06/08 00:23:59;;;;;;;;;;;;;;;;;;4934333;28;19942;-87
2023/06/08 00:26:45;;;;;;;;;;;;;;;;;;4945125;28;19923;-88
2023/06/08 00:29:32;;;;;;;;;;;;;;;;;;4932897;28;19919;-88
2023/06/08 00:32:18;;;;;;;;;;;;;;;;;;4937638;29;19945;-90
2023/06/08 00:35:05;;;;;;;;;;;;;;;;;;4944080;28;19918;-90
2023/06/08 00:37:52;;;;;;;;;;;;;;;;;;4941870;28;19919;-90
2023/06/08 00:40:39;;;;;;;;;;;;;;;;;;4939455;29;19915;-92
2023/06/08 00:43:25;;;;;;;;;;;;;;;;;;4948884;28;19931;-91
2023/06/08 00:46:12;;;;;;;;;;;;;;;;;;4941319;28;19945;-88
2023/06/08 00:48:58;;;;;;;;;;;;;;;;;;4951667;28;19919;-88
2023/06/08 00:51:45;;;;;;;;;;;;;;;;;;4945625;28;19922;-87
2023/06/08 00:54:32;;;;;;;;;;;;;;;;;;4932825;28;20279;-89
2023/06/08 00:57:19;;;;;;;;;;;;;;;;;;4938018;29;19922;-87
2023/06/08 01:00:05;;;;;;;;;;;;;;;;;;4938888;29;19921;-88
2023/06/08 01:02:53;;;;;;;;;;;;;;;;;;4943842;29;20484;-88
2023/06/08 01:05:43;;;;;;;;;;;;;;;;;;4941621;29;19922;-88
2023/06/08 01:08:30;;;;;;;;;;;;;;;;;;4941704;28;19918;-89
2023/06/08 01:11:17;;;;;;;;;;;;;;;;;;4941061;29;19933;-87
2023/06/08 01:14:03;;;;;;;;;;;;;;;;;;4940193;28;20404;-87
2023/06/08 01:16:50;;;;;;;;;;;;;;;;;;4945453;28;19919;-88
2023/06/08 01:19:36;;;;;;;;;;;;;;;;;;4939078;29;20318;-87
2023/06/08 01:22:23;;;;;;;;;;;;;;;;;;4948664;28;19929;-88
2023/06/08 01:25:10;;;;;;;;;;;;;;;;;;4948849;29;20050;-89
2023/06/08 01:27:58;;;;;;;;;;;;;;;;;;4938658;28;20461;-88
2023/06/08 01:30:44;;;;;;;;;;;;;;;;;;4941788;29;20019;-88
2023/06/08 01:33:31;;;;;;;;;;;;;;;;;;4949983;29;19922;-88
2023/06/08 01:36:18;;;;;;;;;;;;;;;;;;4966482;28;19911;-88
2023/06/08 01:39:04;;;;;;;;;;;;;;;;;;4959375;29;20257;-86
2023/06/08 01:41:51;;;;;;;;;;;;;;;;;;4958680;29;19930;-88
2023/06/08 01:44:37;;;;;;;;;;;;;;;;;;4965446;29;20166;-89
2023/06/08 01:47:24;;;;;;;;;;;;;;;;;;4951974;29;19929;-87
2023/06/08 01:50:10;;;;;;;;;;;;;;;;;;4953669;28;19919;-87
2023/06/08 01:52:58;;;;;;;;;;;;;;;;;;4956114;28;19923;-88
2023/06/08 01:55:44;;;;;;;;;;;;;;;;;;4953311;29;19992;-88
2023/06/08 01:58:31;;;;;;;;;;;;;;;;;;4954224;28;19929;-89
2023/06/08 02:01:17;;;;;;;;;;;;;;;;;;4957163;29;19919;-85
2023/06/08 02:04:04;;;;;;;;;;;;;;;;;;4936781;29;19930;-86
2023/06/08 02:06:50;;;;;;;;;;;;;;;;;;4942989;28;19919;-86
2023/06/08 02:09:37;;;;;;;;;;;;;;;;;;4945574;28;19926;-87
2023/06/08 02:12:23;;;;;;;;;;;;;;;;;;4944978;28;19922;-86
2023/06/08 02:15:10;;;;;;;;;;;;;;;;;;4935880;28;19971;-86
2023/06/08 02:17:59;;;;;;;;;;;;;;;;;;4954808;28;19938;-89
2023/06/08 02:20:45;;;;;;;;;;;;;;;;;;4939789;29;19925;-89
2023/06/08 02:23:32;;;;;;;;;;;;;;;;;;4943316;28;19930;-87
2023/06/08 02:26:18;;;;;;;;;;;;;;;;;;4947541;28;19918;-88
2023/06/08 02:29:05;;;;;;;;;;;;;;;;;;4941534;28;19941;-87
2023/06/08 02:31:51;;;;;;;;;;;;;;;;;;4940816;28;19918;-88
2023/06/08 02:34:38;;;;;;;;;;;;;;;;;;4943667;28;19922;-86
2023/06/08 02:37:25;;;;;;;;;;;;;;;;;;4942726;28;19930;-84
2023/06/08 02:40:11;;;;;;;;;;;;;;;;;;4942695;28;19925;-86
2023/06/08 02:42:58;;;;;;;;;;;;;;;;;;4955966;28;19922;-86
2023/06/08 02:45:44;;;;;;;;;;;;;;;;;;4946152;29;19923;-86
2023/06/08 02:48:31;;;;;;;;;;;;;;;;;;4948256;28;20298;-85
2023/06/08 02:51:19;;;;;;;;;;;;;;;;;;4937701;29;20393;-86
2023/06/08 02:54:05;;;;;;;;;;;;;;;;;;4941101;28;19922;-89
2023/06/08 02:56:51;;;;;;;;;;;;;;;;;;4946385;28;19925;-89
2023/06/08 02:59:38;;;;;;;;;;;;;;;;;;4940122;29;19925;-88
2023/06/08 03:02:27;;;;;;;;;;;;;;;;;;4943991;29;19986;-90
2023/06/08 03:05:13;;;;;;;;;;;;;;;;;;4955908;29;19964;-94
2023/06/08 03:08:01;;;;;;;;;;;;;;;;;;4959389;29;19932;-91
2023/06/08 03:10:47;;;;;;;;;;;;;;;;;;4941082;29;19929;-87
2023/06/08 03:13:34;;;;;;;;;;;;;;;;;;4944873;29;19932;-87
2023/06/08 03:16:22;;;;;;;;;;;;;;;;;;4942690;29;19930;-86
2023/06/08 03:19:09;;;;;;;;;;;;;;;;;;4947733;28;19922;-89
2023/06/08 03:21:56;;;;;;;;;;;;;;;;;;4948927;28;19930;-90
2023/06/08 03:24:48;;;;;;;;;;;;;;;;;;4947016;28;19938;-89
2023/06/08 03:27:34;;;;;;;;;;;;;;;;;;4948353;29;19934;-89
2023/06/08 03:30:21;;;;;;;;;;;;;;;;;;4935945;29;20391;-89
2023/06/08 03:33:07;;;;;;;;;;;;;;;;;;4948651;28;19924;-90
2023/06/08 03:35:54;;;;;;;;;;;;;;;;;;4944214;28;20507;-89
2023/06/08 03:38:40;;;;;;;;;;;;;;;;;;4938675;29;19919;-88
2023/06/08 03:41:27;;;;;;;;;;;;;;;;;;4936150;29;19922;-89
2023/06/08 03:44:13;;;;;;;;;;;;;;;;;;4940657;28;19936;-89
2023/06/08 03:47:00;;;;;;;;;;;;;;;;;;4944850;28;19922;-89
2023/06/08 03:49:46;;;;;;;;;;;;;;;;;;4947264;28;19918;-89
2023/06/08 03:52:33;;;;;;;;;;;;;;;;;;4950154;28;19929;-86
2023/06/08 03:55:21;;;;;;;;;;;;;;;;;;4942742;29;19930;-87
2023/06/08 03:58:07;;;;;;;;;;;;;;;;;;4935108;28;19922;-87
2023/06/08 04:00:56;;;;;;;;;;;;;;;;;;4938540;29;19929;-90
2023/06/08 04:03:42;;;;;;;;;;;;;;;;;;4952579;28;19937;-89
2023/06/08 04:06:33;;;;;;;;;;;;;;;;;;4935906;28;20362;-89
2023/06/08 04:09:19;;;;;;;;;;;;;;;;;;4948635;28;19938;-91
2023/06/08 04:12:06;;;;;;;;;;;;;;;;;;4948166;29;20295;-93
2023/06/08 04:14:53;;;;;;;;;;;;;;;;;;4949908;29;20006;-93
2023/06/08 04:17:41;;;;;;;;;;;;;;;;;;4933332;29;19921;-90
2023/06/08 04:20:28;;;;;;;;;;;;;;;;;;4946955;29;19922;-93
2023/06/08 04:23:15;;;;;;;;;;;;;;;;;;4946688;28;20316;-94
2023/06/08 04:26:01;;;;;;;;;;;;;;;;;;4947711;29;19919;-94
2023/06/08 04:28:48;;;;;;;;;;;;;;;;;;4948486;29;19927;-93
2023/06/08 04:31:37;;;;;;;;;;;;;;;;;;4938032;28;20276;-89
2023/06/08 04:34:23;;;;;;;;;;;;;;;;;;4942693;28;19923;-88
2023/06/08 04:37:10;;;;;;;;;;;;;;;;;;4932906;29;19918;-87
2023/06/08 04:39:56;;;;;;;;;;;;;;;;;;4942643;28;19930;-89
2023/06/08 04:42:44;;;;;;;;;;;;;;;;;;4943208;28;19921;-91
2023/06/08 04:45:33;;;;;;;;;;;;;;;;;;4943860;29;20036;-91
2023/06/08 04:48:19;;;;;;;;;;;;;;;;;;4943326;28;19926;-89
2023/06/08 04:51:09;;;;;;;;;;;;;;;;;;4944360;28;19943;-88
2023/06/08 04:53:56;;;;;;;;;;;;;;;;;;4941927;28;19945;-89
2023/06/08 04:56:42;;;;;;;;;;;;;;;;;;4947471;28;19925;-88
2023/06/08 04:59:29;;;;;;;;;;;;;;;;;;4938870;28;20025;-89
2023/06/08 05:02:15;;;;;;;;;;;;;;;;;;4946452;29;19923;-92
2023/06/08 05:05:03;;;;;;;;;;;;;;;;;;4957967;28;19938;-93
2023/06/08 05:07:49;;;;;;;;;;;;;;;;;;4958647;29;19918;-93
2023/06/08 05:10:35;;;;;;;;;;;;;;;;;;4955500;28;19919;-86
2023/06/08 05:13:22;;;;;;;;;;;;;;;;;;4953426;28;20390;-92
2023/06/08 05:16:08;;;;;;;;;;;;;;;;;;4952671;29;20573;-89
2023/06/08 05:18:55;;;;;;;;;;;;;;;;;;4937066;28;19936;-85
2023/06/08 05:21:41;;;;;;;;;;;;;;;;;;4947472;29;19918;-88
2023/06/08 05:24:28;;;;;;;;;;;;;;;;;;4940391;28;19927;-86
2023/06/08 05:27:14;;;;;;;;;;;;;;;;;;4950866;28;19965;-86
2023/06/08 05:30:01;;;;;;;;;;;;;;;;;;4936179;28;19925;-86
2023/06/08 05:32:47;;;;;;;;;;;;;;;;;;4937123;28;19944;-86
2023/06/08 05:35:34;;;;;;;;;;;;;;;;;;4949737;29;19914;-89
2023/06/08 05:38:21;;;;;;;;;;;;;;;;;;4936111;28;19927;-86
2023/06/08 05:41:07;;;;;;;;;;;;;;;;;;4944229;28;19929;-84
2023/06/08 05:43:54;;;;;;;;;;;;;;;;;;4940307;28;20651;-81
2023/06/08 05:46:41;;;;;;;;;;;;;;;;;;4944677;28;19922;-78
2023/06/08 05:49:27;;;;;;;;;;;;;;;;;;4946910;28;20292;-78
2023/06/08 05:52:14;;;;;;;;;;;;;;;;;;4940725;28;19934;-78
2023/06/08 05:55:00;;;;;;;;;;;;;;;;;;4941261;28;19922;-79
2023/06/08 05:57:47;;;;;;;;;;;;;;;;;;4933426;28;19930;-79
2023/06/08 06:00:34;;;;;;;;;;;;;;;;;;4945804;28;19918;-78
2023/06/08 06:03:21;;;;;;;;;;;;;;;;;;4937302;28;19930;-80
2023/06/08 06:06:08;;;;;;;;;;;;;;;;;;4952022;28;19922;-79
2023/06/08 06:08:54;;;;;;;;;;;;;;;;;;4941914;28;19973;-79
2023/06/08 06:11:41;;;;;;;;;;;;;;;;;;4947435;28;19938;-79
2023/06/08 06:14:27;;;;;;;;;;;;;;;;;;4939225;29;20370;-78
2023/06/08 06:17:15;;;;;;;;;;;;;;;;;;4943577;28;19919;-78
2023/06/08 06:20:05;;;;;;;;;;;;;;;;;;4930804;29;19974;-79
2023/06/08 06:22:51;;;;;;;;;;;;;;;;;;4946342;28;19923;-79
2023/06/08 06:25:38;;;;;;;;;;;;;;;;;;4942870;28;19933;-78
2023/06/08 06:28:24;;;;;;;;;;;;;;;;;;4944033;28;19937;-78
2023/06/08 06:31:11;;;;;;;;;;;;;;;;;;4945529;28;19922;-78
2023/06/08 06:33:57;;;;;;;;;;;;;;;;;;4945102;28;19930;-79
2023/06/08 06:36:44;;;;;;;;;;;;;;;;;;4944175;28;19922;-79
2023/06/08 06:39:31;;;;;;;;;;;;;;;;;;4934569;28;19942;-79
2023/06/08 06:42:17;;;;;;;;;;;;;;;;;;4927211;29;19926;-79
2023/06/08 06:45:04;;;;;;;;;;;;;;;;;;4940757;29;19926;-78
2023/06/08 06:47:51;;;;;;;;;;;;;;;;;;4936071;28;19922;-78
2023/06/08 06:50:37;;;;;;;;;;;;;;;;;;4945557;29;19922;-77
2023/06/08 06:53:24;;;;;;;;;;;;;;;;;;4939542;28;19922;-79
2023/06/08 06:56:10;;;;;;;;;;;;;;;;;;4942969;29;19925;-79
2023/06/08 06:58:57;;;;;;;;;;;;;;;;;;4943854;29;19919;-79
2023/06/08 07:01:43;;;;;;;;;;;;;;;;;;4939239;29;19944;-79
2023/06/08 07:04:31;;;;;;;;;;;;;;;;;;4943201;28;19953;-78
2023/06/08 07:07:18;;;;;;;;;;;;;;;;;;4932380;28;20563;-78
2023/06/08 07:10:04;;;;;;;;;;;;;;;;;;4942614;29;19933;-78
2023/06/08 07:12:51;;;;;;;;;;;;;;;;;;4930113;28;19922;-78
2023/06/08 07:15:41;;;;;;;;;;;;;;;;;;4944019;28;19925;-77
2023/06/08 07:18:28;;;;;;;;;;;;;;;;;;4945332;28;19930;-78
2023/06/08 07:21:15;;;;;;;;;;;;;;;;;;4943022;29;19919;-78
2023/06/08 07:24:01;;;;;;;;;;;;;;;;;;4937468;29;19927;-78
2023/06/08 07:26:47;;;;;;;;;;;;;;;;;;4947569;28;19925;-78
2023/06/08 07:29:34;;;;;;;;;;;;;;;;;;4942310;28;19926;-78
2023/06/08 07:32:21;;;;;;;;;;;;;;;;;;4936944;28;19932;-79
2023/06/08 07:35:07;;;;;;;;;;;;;;;;;;4933374;29;20039;-78
2023/06/08 07:37:54;;;;;;;;;;;;;;;;;;4940781;29;20398;-78
2023/06/08 07:40:40;;;;;;;;;;;;;;;;;;4942597;29;20175;-78
2023/06/08 07:43:27;;;;;;;;;;;;;;;;;;4935530;28;19933;-79
2023/06/08 07:46:13;;;;;;;;;;;;;;;;;;4944433;28;19958;-78
2023/06/08 07:49:00;;;;;;;;;;;;;;;;;;4932208;28;21031;-79
2023/06/08 07:51:46;;;;;;;;;;;;;;;;;;4931137;29;19926;-78
2023/06/08 07:54:33;;;;;;;;;;;;;;;;;;4936009;29;20390;-78
2023/06/08 07:57:19;;;;;;;;;;;;;;;;;;4930607;29;20294;-82
2023/06/08 08:00:06;;;;;;;;;;;;;;;;;;4921876;29;19926;-78
2023/06/08 08:02:52;;;;;;;;;;;;;;;;;;4939031;28;19919;-78
2023/06/08 08:05:39;;;;;;;;;;;;;;;;;;4943321;29;20290;-79
2023/06/08 08:08:26;;;;;;;;;;;;;;;;;;4937982;28;19926;-79
2023/06/08 08:11:12;;;;;;;;;;;;;;;;;;4944278;28;19919;-80
2023/06/08 08:13:59;;;;;;;;;;;;;;;;;;4943944;29;19925;-79
2023/06/08 08:16:45;;;;;;;;;;;;;;;;;;4940723;28;19920;-78
2023/06/08 08:19:32;;;;;;;;;;;;;;;;;;4936481;29;19925;-78
2023/06/08 08:22:18;;;;;;;;;;;;;;;;;;4943254;29;19919;-79
2023/06/08 08:25:05;;;;;;;;;;;;;;;;;;4926030;28;19930;-80
2023/06/08 08:27:51;;;;;;;;;;;;;;;;;;4940169;28;19933;-78
2023/06/08 08:30:38;;;;;;;;;;;;;;;;;;4943896;29;19918;-79
2023/06/08 08:33:26;;;;;;;;;;;;;;;;;;4944531;28;19918;-78
2023/06/08 08:36:13;;;;;;;;;;;;;;;;;;4941659;29;19941;-78
2023/06/08 08:38:59;;;;;;;;;;;;;;;;;;4934525;28;19929;-79
2023/06/08 08:41:53;;;;;;;;;;;;;;;;;;4934077;29;19922;-80
2023/06/08 08:44:39;;;;;;;;;;;;;;;;;;4941464;29;19938;-78
2023/06/08 08:47:28;;;;;;;;;;;;;;;;;;4943683;28;19922;-79
2023/06/08 08:50:17;;;;;;;;;;;;;;;;;;4942034;29;19924;-78
2023/06/08 08:53:04;;;;;;;;;;;;;;;;;;4938063;29;19937;-78
2023/06/08 08:55:52;;;;;;;;;;;;;;;;;;4943386;28;19918;-78
2023/06/08 08:58:40;;;;;;;;;;;;;;;;;;4941464;28;20711;-78
2023/06/08 09:01:26;;;;;;;;;;;;;;;;;;4938172;29;19928;-78
2023/06/08 09:04:13;;;;;;;;;;;;;;;;;;4939561;28;19930;-79
2023/06/08 09:07:00;;;;;;;;;;;;;;;;;;4933381;29;19919;-78
2023/06/08 09:09:46;;;;;;;;;;;;;;;;;;4937837;28;19918;-78
2023/06/08 09:12:33;;;;;;;;;;;;;;;;;;4947491;28;19918;-80
2023/06/08 09:15:20;;;;;;;;;;;;;;;;;;4931301;29;19930;-79
2023/06/08 09:18:07;;;;;;;;;;;;;;;;;;4926132;29;20369;-79
2023/06/08 09:20:55;;;;;;;;;;;;;;;;;;4932810;28;19922;-80
2023/06/08 09:23:42;;;;;;;;;;;;;;;;;;4935076;28;20374;-78
2023/06/08 09:26:31;;;;;;;;;;;;;;;;;;4942167;28;20002;-79
2023/06/08 09:29:19;;;;;;;;;;;;;;;;;;4926164;29;19927;-78
2023/06/08 09:32:05;;;;;;;;;;;;;;;;;;4934736;28;19929;-78
2023/06/08 09:34:53;;;;;;;;;;;;;;;;;;4938205;29;19918;-78
2023/06/08 09:37:40;;;;;;;;;;;;;;;;;;4940458;28;19941;-79
2023/06/08 09:40:27;;;;;;;;;;;;;;;;;;4947749;29;19932;-78
2023/06/08 09:43:13;;;;;;;;;;;;;;;;;;4933248;28;20492;-78
2023/06/08 09:46:00;;;;;;;;;;;;;;;;;;4931604;28;19929;-78
2023/06/08 09:48:46;;;;;;;;;;;;;;;;;;4948211;28;19919;-78
2023/06/08 09:51:33;;;;;;;;;;;;;;;;;;4944514;28;19929;-79
2023/06/08 09:54:19;;;;;;;;;;;;;;;;;;4943561;29;19933;-79
2023/06/08 09:57:06;;;;;;;;;;;;;;;;;;4943246;28;19929;-78
2023/06/08 09:59:52;;;;;;;;;;;;;;;;;;4939499;28;20656;-79
2023/06/08 10:02:39;;;;;;;;;;;;;;;;;;4932808;29;19922;-79
2023/06/08 10:05:25;;;;;;;;;;;;;;;;;;4938427;28;20038;-80
2023/06/08 10:08:12;;;;;;;;;;;;;;;;;;4943603;29;19925;-78
2023/06/08 10:10:58;;;;;;;;;;;;;;;;;;4937353;28;20333;-78
2023/06/08 10:13:45;;;;;;;;;;;;;;;;;;4941699;28;19922;-78
2023/06/08 10:16:31;;;;;;;;;;;;;;;;;;4939030;29;20392;-78
2023/06/08 10:19:18;;;;;;;;;;;;;;;;;;4930525;29;20414;-79
2023/06/08 10:22:05;;;;;;;;;;;;;;;;;;4944935;29;19922;-79
2023/06/08 10:24:52;;;;;;;;;;;;;;;;;;4940586;28;19931;-79
2023/06/08 10:27:38;;;;;;;;;;;;;;;;;;4928950;29;19927;-78
2023/06/08 10:30:26;;;;;;;;;;;;;;;;;;4929954;29;19930;-79
2023/06/08 10:33:15;;;;;;;;;;;;;;;;;;4933126;28;20242;-79
2023/06/08 10:36:02;;;;;;;;;;;;;;;;;;4939890;28;19926;-79
2023/06/08 10:38:49;;;;;;;;;;;;;;;;;;4930309;28;19918;-78
2023/06/08 10:41:35;;;;;;;;;;;;;;;;;;4938343;28;19937;-79
2023/06/08 10:44:21;;;;;;;;;;;;;;;;;;4940975;29;19931;-78
2023/06/08 10:47:08;;;;;;;;;;;;;;;;;;4930062;29;19919;-78
2023/06/08 10:49:55;;;;;;;;;;;;;;;;;;4939992;29;20426;-79
2023/06/08 10:52:42;;;;;;;;;;;;;;;;;;4941605;28;19934;-78
2023/06/08 10:55:28;;;;;;;;;;;;;;;;;;4944513;28;20463;-78
2023/06/08 10:58:15;;;;;;;;;;;;;;;;;;4910869;29;19997;-79
2023/06/08 11:01:01;;;;;;;;;;;;;;;;;;4932283;28;19965;-77
2023/06/08 11:03:48;;;;;;;;;;;;;;;;;;4935331;28;19926;-77
2023/06/08 11:06:34;;;;;;;;;;;;;;;;;;4948737;28;19922;-77
2023/06/08 11:09:21;;;;;;;;;;;;;;;;;;4939185;28;20312;-79
2023/06/08 11:12:07;;;;;;;;;;;;;;;;;;4939986;29;19918;-78
2023/06/08 11:14:54;;;;;;;;;;;;;;;;;;4940475;28;19922;-78
2023/06/08 11:17:40;;;;;;;;;;;;;;;;;;4949472;28;19921;-78
2023/06/08 11:20:27;;;;;;;;;;;;;;;;;;4901148;28;20712;-79
2023/06/08 11:23:13;;;;;;;;;;;;;;;;;;4945021;28;19918;-78
2023/06/08 11:26:00;;;;;;;;;;;;;;;;;;4928544;29;19939;-79
2023/06/08 11:28:46;;;;;;;;;;;;;;;;;;4945487;29;19935;-79
2023/06/08 11:31:39;;;;;;;;;;;;;;;;;;4932566;28;19923;-77
2023/06/08 11:34:26;;;;;;;;;;;;;;;;;;4939898;28;19925;-77
2023/06/08 11:37:13;;;;;;;;;;;;;;;;;;4949544;28;19944;-77
2023/06/08 11:39:59;;;;;;;;;;;;;;;;;;4937590;29;19918;-77
2023/06/08 11:42:46;;;;;;;;;;;;;;;;;;4933714;28;19925;-78
2023/06/08 11:45:32;;;;;;;;;;;;;;;;;;4945658;28;19927;-77
2023/06/08 11:48:19;;;;;;;;;;;;;;;;;;4950122;28;20452;-78
2023/06/08 11:51:06;;;;;;;;;;;;;;;;;;4941660;28;19923;-76
2023/06/08 11:53:52;;;;;;;;;;;;;;;;;;4941461;28;20288;-77
2023/06/08 11:56:39;;;;;;;;;;;;;;;;;;4938842;28;20366;-79
2023/06/08 11:59:25;;;;;;;;;;;;;;;;;;4931106;29;19921;-79
2023/06/08 12:02:12;;;;;;;;;;;;;;;;;;4935197;28;19923;-79
2023/06/08 12:04:59;;;;;;;;;;;;;;;;;;4938909;29;19931;-78
2023/06/08 12:07:45;;;;;;;;;;;;;;;;;;4932399;28;19945;-79
2023/06/08 12:10:32;;;;;;;;;;;;;;;;;;4940087;29;20654;-78
2023/06/08 12:13:22;;;;;;;;;;;;;;;;;;4929597;29;19922;-77
2023/06/08 12:16:09;;;;;;;;;;;;;;;;;;4936871;29;19925;-78
2023/06/08 12:18:55;;;;;;;;;;;;;;;;;;4940090;28;20018;-79
2023/06/08 12:21:42;;;;;;;;;;;;;;;;;;4938014;28;19930;-77
2023/06/08 12:24:28;;;;;;;;;;;;;;;;;;4939415;28;19926;-77
2023/06/08 12:27:15;;;;;;;;;;;;;;;;;;4938493;28;20375;-77
2023/06/08 12:30:02;;;;;;;;;;;;;;;;;;4931407;29;19930;-78
2023/06/08 12:32:49;;;;;;;;;;;;;;;;;;4927963;29;19923;-78
2023/06/08 12:35:35;;;;;;;;;;;;;;;;;;4942405;29;19949;-78
2023/06/08 12:38:22;;;;;;;;;;;;;;;;;;4941648;29;19927;-77
2023/06/08 12:41:08;;;;;;;;;;;;;;;;;;4935031;28;19922;-78
2023/06/08 12:43:55;;;;;;;;;;;;;;;;;;4928675;29;19933;-77
2023/06/08 12:46:41;;;;;;;;;;;;;;;;;;4930898;28;19919;-77
2023/06/08 12:49:28;;;;;;;;;;;;;;;;;;4939502;29;19925;-77
2023/06/08 12:52:17;;;;;;;;;;;;;;;;;;4932033;29;20378;-78
2023/06/08 12:55:05;;;;;;;;;;;;;;;;;;4928542;29;19918;-78
2023/06/08 12:57:52;;;;;;;;;;;;;;;;;;4932544;28;19926;-78
2023/06/08 13:00:38;;;;;;;;;;;;;;;;;;4936823;29;19926;-76
2023/06/08 13:03:25;;;;;;;;;;;;;;;;;;4931027;29;19921;-76
2023/06/08 13:06:11;;;;;;;;;;;;;;;;;;4929581;29;19926;-77
2023/06/08 13:08:58;;;;;;;;;;;;;;;;;;4937153;28;20295;-77
2023/06/08 13:11:44;;;;;;;;;;;;;;;;;;4931822;28;19956;-77
2023/06/08 13:14:33;;;;;;;;;;;;;;;;;;4941775;29;20678;-77
2023/06/08 13:17:19;;;;;;;;;;;;;;;;;;4939193;28;20303;-77
2023/06/08 13:20:06;;;;;;;;;;;;;;;;;;4939994;29;19922;-77
2023/06/08 13:22:53;;;;;;;;;;;;;;;;;;4942415;28;20402;-78
2023/06/08 13:25:39;;;;;;;;;;;;;;;;;;4957147;28;19934;-78
2023/06/08 13:28:26;;;;;;;;;;;;;;;;;;4941658;29;20644;-77
2023/06/08 13:31:12;;;;;;;;;;;;;;;;;;4946049;28;19941;-77
2023/06/08 13:33:59;;;;;;;;;;;;;;;;;;4936091;29;19918;-78
2023/06/08 13:36:46;;;;;;;;;;;;;;;;;;4935796;28;19914;-79
2023/06/08 13:39:33;;;;;;;;;;;;;;;;;;4945695;29;20381;-78
2023/06/08 13:42:19;;;;;;;;;;;;;;;;;;4939159;29;19919;-78
2023/06/08 13:45:10;;;;;;;;;;;;;;;;;;4931787;29;20315;-79
2023/06/08 13:47:56;;;;;;;;;;;;;;;;;;4940364;29;19915;-78
2023/06/08 13:50:43;;;;;;;;;;;;;;;;;;4943849;29;19923;-79
2023/06/08 13:53:29;;;;;;;;;;;;;;;;;;4947028;28;19925;-78
2023/06/08 13:56:16;;;;;;;;;;;;;;;;;;4937242;29;19922;-77
2023/06/08 13:59:03;;;;;;;;;;;;;;;;;;4944907;29;19934;-78
2023/06/08 14:01:49;;;;;;;;;;;;;;;;;;4947978;28;19925;-78
2023/06/08 14:04:36;;;;;;;;;;;;;;;;;;4946492;28;20521;-78
2023/06/08 14:07:23;;;;;;;;;;;;;;;;;;4942373;28;19940;-77
2023/06/08 14:10:10;;;;;;;;;;;;;;;;;;4929449;29;20250;-78
2023/06/08 14:12:57;;;;;;;;;;;;;;;;;;4945442;29;19927;-78
2023/06/08 14:15:43;;;;;;;;;;;;;;;;;;4942511;29;19922;-78
2023/06/08 14:18:30;;;;;;;;;;;;;;;;;;4943431;28;20422;-77
2023/06/08 14:21:16;;;;;;;;;;;;;;;;;;4941668;28;20370;-78
2023/06/08 14:24:03;;;;;;;;;;;;;;;;;;4935287;28;20302;-77
2023/06/08 14:26:50;;;;;;;;;;;;;;;;;;4941663;28;20334;-78
2023/06/08 14:29:36;;;;;;;;;;;;;;;;;;4937752;28;19925;-78
2023/06/08 14:32:23;;;;;;;;;;;;;;;;;;4932288;29;20287;-78
2023/06/08 14:35:09;;;;;;;;;;;;;;;;;;4939117;29;19925;-78
2023/06/08 14:37:56;;;;;;;;;;;;;;;;;;4945389;29;19918;-78
2023/06/08 14:40:42;;;;;;;;;;;;;;;;;;4938504;29;19923;-78
2023/06/08 14:43:29;;;;;;;;;;;;;;;;;;4939433;28;19929;-78
2023/06/08 14:46:15;;;;;;;;;;;;;;;;;;4939496;28;20412;-79
2023/06/08 14:49:02;;;;;;;;;;;;;;;;;;4934592;28;20282;-77
2023/06/08 14:51:48;;;;;;;;;;;;;;;;;;4929401;28;19926;-78
2023/06/08 14:54:35;;;;;;;;;;;;;;;;;;4942241;28;19932;-78
2023/06/08 14:57:21;;;;;;;;;;;;;;;;;;4937828;28;19953;-78
2023/06/08 15:00:09;;;;;;;;;;;;;;;;;;4934923;28;19929;-78
2023/06/08 15:02:55;;;;;;;;;;;;;;;;;;4942449;28;19929;-79
2023/06/08 15:05:42;;;;;;;;;;;;;;;;;;4934896;28;20866;-79
2023/06/08 15:08:29;;;;;;;;;;;;;;;;;;4935741;29;20271;-77
2023/06/08 15:11:18;;;;;;;;;;;;;;;;;;4923856;28;19923;-78
2023/06/08 15:14:04;;;;;;;;;;;;;;;;;;4936287;28;19941;-78
2023/06/08 15:16:50;;;;;;;;;;;;;;;;;;4941007;28;19925;-79
2023/06/08 15:19:37;;;;;;;;;;;;;;;;;;4932990;28;19965;-77
2023/06/08 15:22:23;;;;;;;;;;;;;;;;;;4936310;28;19919;-78
2023/06/08 15:25:10;;;;;;;;;;;;;;;;;;4942896;28;19927;-78
2023/06/08 15:27:56;;;;;;;;;;;;;;;;;;4932149;28;19930;-78
2023/06/08 15:30:43;;;;;;;;;;;;;;;;;;4941883;29;20580;-77
2023/06/08 15:33:29;;;;;;;;;;;;;;;;;;4943956;28;19934;-78
2023/06/08 15:36:17;;;;;;;;;;;;;;;;;;4939432;28;19922;-80
2023/06/08 15:39:04;;;;;;;;;;;;;;;;;;4937509;28;19923;-78
2023/06/08 15:41:50;;;;;;;;;;;;;;;;;;4940163;28;19926;-79
2023/06/08 15:44:37;;;;;;;;;;;;;;;;;;4940930;29;20523;-78
2023/06/08 15:47:23;;;;;;;;;;;;;;;;;;4940176;29;19921;-79
2023/06/08 15:50:09;;;;;;;;;;;;;;;;;;4939668;29;20022;-79
2023/06/08 15:52:56;;;;;;;;;;;;;;;;;;4936481;28;20297;-79
2023/06/08 15:55:42;;;;;;;;;;;;;;;;;;4937897;29;19919;-78
2023/06/08 15:58:29;;;;;;;;;;;;;;;;;;4936561;28;19969;-78
2023/06/08 16:01:15;;;;;;;;;;;;;;;;;;4937064;28;20375;-78
2023/06/08 16:04:02;;;;;;;;;;;;;;;;;;4935918;29;19927;-80
2023/06/08 16:06:48;;;;;;;;;;;;;;;;;;4939074;28;20420;-78
2023/06/08 16:09:35;;;;;;;;;;;;;;;;;;4941695;29;19926;-78
2023/06/08 16:12:21;;;;;;;;;;;;;;;;;;4936688;28;19926;-78
2023/06/08 16:15:08;;;;;;;;;;;;;;;;;;4943068;29;20445;-78
2023/06/08 16:17:54;;;;;;;;;;;;;;;;;;4930080;29;19923;-78
2023/06/08 16:20:41;;;;;;;;;;;;;;;;;;4933617;29;20401;-78
2023/06/08 16:23:28;;;;;;;;;;;;;;;;;;4936325;28;19923;-78
2023/06/08 16:26:15;;;;;;;;;;;;;;;;;;4929983;28;19950;-78
2023/06/08 16:29:01;;;;;;;;;;;;;;;;;;4937037;28;19930;-78
2023/06/08 16:31:48;;;;;;;;;;;;;;;;;;4943216;28;19928;-78
2023/06/08 16:34:34;;;;;;;;;;;;;;;;;;4938728;28;19930;-78
2023/06/08 16:37:21;;;;;;;;;;;;;;;;;;4933772;28;19923;-78
2023/06/08 16:40:09;;;;;;;;;;;;;;;;;;4932363;29;19925;-78
2023/06/08 16:42:55;;;;;;;;;;;;;;;;;;4938014;29;19927;-78
2023/06/08 16:45:42;;;;;;;;;;;;;;;;;;4937601;29;19934;-78
2023/06/08 16:48:28;;;;;;;;;;;;;;;;;;4943661;28;20409;-78
2023/06/08 16:51:15;;;;;;;;;;;;;;;;;;4937683;28;19918;-78
2023/06/08 16:54:03;;;;;;;;;;;;;;;;;;4941966;29;19926;-78
2023/06/08 16:56:49;;;;;;;;;;;;;;;;;;4943980;29;19925;-78
2023/06/08 16:59:36;;;;;;;;;;;;;;;;;;4935018;28;19921;-78
2023/06/08 17:02:22;;;;;;;;;;;;;;;;;;4943678;28;19926;-78
2023/06/08 17:05:09;;;;;;;;;;;;;;;;;;4945980;28;19933;-78
2023/06/08 17:07:55;;;;;;;;;;;;;;;;;;4945935;28;19926;-78
2023/06/08 17:10:42;;;;;;;;;;;;;;;;;;4938596;28;19919;-78
2023/06/08 17:13:28;;;;;;;;;;;;;;;;;;4951314;28;19934;-77
2023/06/08 17:16:14;;;;;;;;;;;;;;;;;;4950461;29;20306;-76
2023/06/08 17:19:01;;;;;;;;;;;;;;;;;;4940608;29;19915;-80
2023/06/08 17:21:47;;;;;;;;;;;;;;;;;;4945736;28;20398;-77
2023/06/08 17:24:34;;;;;;;;;;;;;;;;;;4949849;28;19922;-78
2023/06/08 17:27:21;;;;;;;;;;;;;;;;;;4943026;29;19931;-77
2023/06/08 17:30:07;;;;;;;;;;;;;;;;;;4946691;28;20294;-77
2023/06/08 17:32:54;;;;;;;;;;;;;;;;;;4951439;28;20362;-78
2023/06/08 17:35:40;;;;;;;;;;;;;;;;;;4944102;29;20450;-77
2023/06/08 17:38:27;;;;;;;;;;;;;;;;;;4944310;28;19933;-78
2023/06/08 17:41:13;;;;;;;;;;;;;;;;;;4947456;28;19929;-78
2023/06/08 17:44:00;;;;;;;;;;;;;;;;;;4945656;28;20101;-78
2023/06/08 17:46:46;;;;;;;;;;;;;;;;;;4946250;28;19930;-78
2023/06/08 17:49:34;;;;;;;;;;;;;;;;;;4938281;29;19919;-78
2023/06/08 17:52:20;;;;;;;;;;;;;;;;;;4937376;29;19922;-77
2023/06/08 17:55:07;;;;;;;;;;;;;;;;;;4948241;28;19921;-78
2023/06/08 17:57:54;;;;;;;;;;;;;;;;;;4944144;28;20009;-78
2023/06/08 18:00:41;;;;;;;;;;;;;;;;;;4935958;29;19918;-78
2023/06/08 18:03:27;;;;;;;;;;;;;;;;;;4946492;28;19918;-78
2023/06/08 18:06:14;;;;;;;;;;;;;;;;;;4938992;28;19937;-77
2023/06/08 18:09:01;;;;;;;;;;;;;;;;;;4939274;29;19923;-77
2023/06/08 18:11:47;;;;;;;;;;;;;;;;;;4943629;29;19922;-76
2023/06/08 18:14:34;;;;;;;;;;;;;;;;;;4942335;28;19922;-77
2023/06/08 18:17:20;;;;;;;;;;;;;;;;;;4938980;28;19929;-80
2023/06/08 18:20:07;;;;;;;;;;;;;;;;;;4941809;28;19919;-80
2023/06/08 18:22:53;;;;;;;;;;;;;;;;;;4946098;28;19922;-79
2023/06/08 18:25:40;;;;;;;;;;;;;;;;;;4941235;29;19931;-83
2023/06/08 18:28:26;;;;;;;;;;;;;;;;;;4939066;28;19930;-82
2023/06/08 18:31:13;;;;;;;;;;;;;;;;;;4936692;29;20293;-82
2023/06/08 18:33:59;;;;;;;;;;;;;;;;;;4939256;28;19941;-81
2023/06/08 18:36:46;;;;;;;;;;;;;;;;;;4936771;28;19925;-80
2023/06/08 18:39:32;;;;;;;;;;;;;;;;;;4942327;29;19922;-82
2023/06/08 18:42:19;;;;;;;;;;;;;;;;;;4943732;29;20486;-81
2023/06/08 18:45:05;;;;;;;;;;;;;;;;;;4935862;28;20637;-82
2023/06/08 18:47:52;;;;;;;;;;;;;;;;;;4935612;28;19926;-80
2023/06/08 18:50:39;;;;;;;;;;;;;;;;;;4940184;28;20387;-80
2023/06/08 18:53:25;;;;;;;;;;;;;;;;;;4941825;29;19925;-81
2023/06/08 18:56:12;;;;;;;;;;;;;;;;;;4937520;29;19937;-82
2023/06/08 18:58:59;;;;;;;;;;;;;;;;;;4942731;29;20267;-89